createdAt,value
2019-01-20T00:01:33.325Z,21.90
2019-01-20T00:04:02.888Z,20.15
2019-01-20T00:06:32.476Z,22.32
2019-01-20T00:09:02.101Z,23.20
2019-01-20T00:11:33.303Z,21.30
2019-01-20T00:14:02.910Z,24.12
2019-01-20T00:16:32.551Z,22.00
2019-01-20T00:19:01.948Z,20.95
2019-01-20T00:21:31.288Z,21.12
2019-01-20T00:24:00.632Z,19.62
2019-01-20T00:26:29.978Z,17.77
2019-01-20T00:28:59.537Z,19.40
2019-01-20T00:31:29.198Z,22.02
2019-01-20T00:33:58.837Z,20.92
2019-01-20T00:36:28.485Z,21.00
2019-01-20T00:38:58.117Z,17.62
2019-01-20T00:41:27.495Z,18.60
2019-01-20T00:43:56.834Z,19.80
2019-01-20T00:46:26.253Z,21.07
2019-01-20T00:48:55.894Z,20.70
2019-01-20T00:51:25.948Z,20.90
2019-01-20T00:53:55.565Z,18.17
2019-01-20T00:56:24.909Z,19.48
2019-01-20T00:58:54.364Z,19.30
2019-01-20T01:01:23.810Z,17.60
2019-01-20T01:03:53.468Z,20.48
2019-01-20T01:06:23.078Z,20.48
2019-01-20T01:08:52.733Z,20.68
2019-01-20T01:11:22.363Z,20.50
2019-01-20T01:13:52.029Z,20.55
2019-01-20T01:16:21.670Z,19.70
2019-01-20T01:18:51.291Z,18.77
2019-01-20T01:21:20.612Z,22.13
2019-01-20T01:23:50.047Z,21.10
2019-01-20T01:26:19.690Z,19.30
2019-01-20T01:28:49.311Z,21.33
2019-01-20T01:31:18.914Z,20.77
2019-01-20T01:33:48.555Z,18.57
2019-01-20T01:36:18.162Z,18.77
2019-01-20T01:38:47.826Z,20.02
2019-01-20T01:41:17.446Z,20.15
2019-01-20T01:43:47.087Z,19.60
2019-01-20T01:46:16.699Z,16.67
2019-01-20T01:48:46.346Z,18.10
2019-01-20T01:51:15.965Z,19.25
2019-01-20T01:53:45.606Z,22.05
2019-01-20T01:56:15.234Z,20.30
2019-01-20T01:58:44.887Z,17.80
2019-01-20T02:01:14.511Z,20.02
2019-01-20T02:03:44.174Z,19.92
2019-01-20T02:06:13.809Z,21.97
2019-01-20T02:08:43.415Z,20.50
2019-01-20T02:11:13.059Z,21.82
2019-01-20T02:13:42.710Z,20.30
2019-01-20T02:16:12.313Z,21.12
2019-01-20T02:18:41.956Z,21.80
2019-01-20T02:21:11.566Z,21.65
2019-01-20T02:23:41.221Z,21.75
2019-01-20T02:26:10.839Z,21.77
2019-01-20T02:28:40.502Z,19.40
2019-01-20T02:31:10.156Z,22.22
2019-01-20T02:33:39.768Z,21.68
2019-01-20T02:36:09.397Z,22.27
2019-01-20T02:38:39.072Z,22.85
2019-01-20T02:41:08.670Z,18.40
2019-01-20T02:43:38.302Z,20.90
2019-01-20T02:46:07.956Z,21.05
2019-01-20T02:48:37.583Z,20.02
2019-01-20T02:51:07.245Z,19.60
2019-01-20T02:53:36.823Z,18.50
2019-01-20T02:56:07.231Z,17.60
2019-01-20T02:58:36.551Z,19.12
2019-01-20T03:01:06.218Z,20.23
2019-01-20T03:03:35.704Z,20.32
2019-01-20T03:06:05.222Z,20.02
2019-01-20T03:08:34.834Z,19.40
2019-01-20T03:11:04.501Z,19.40
2019-01-20T03:13:34.146Z,19.57
2019-01-20T03:16:04.002Z,17.02
2019-01-20T03:18:35.198Z,17.92
2019-01-20T03:21:04.824Z,16.90
2019-01-20T03:23:34.498Z,19.65
2019-01-20T03:26:04.118Z,19.92
2019-01-20T03:28:33.746Z,20.32
2019-01-20T03:31:03.065Z,18.92
2019-01-20T03:33:32.656Z,19.60
2019-01-20T03:36:02.309Z,18.80
2019-01-20T03:38:31.632Z,19.50
2019-01-20T03:41:01.287Z,18.65
2019-01-20T03:43:30.946Z,19.35
2019-01-20T03:46:00.657Z,17.37
2019-01-20T03:48:30.311Z,16.85
2019-01-20T03:50:59.942Z,19.35
2019-01-20T03:53:29.477Z,18.48
2019-01-20T03:55:59.078Z,19.20
2019-01-20T03:58:28.665Z,17.27
2019-01-20T04:00:58.307Z,17.07
2019-01-20T04:03:27.712Z,19.32
2019-01-20T04:05:57.359Z,18.48
2019-01-20T04:08:26.966Z,16.17
2019-01-20T04:10:56.571Z,16.10
2019-01-20T04:13:26.226Z,17.45
2019-01-20T04:15:55.854Z,18.40
2019-01-20T04:18:25.502Z,17.48
2019-01-20T04:20:55.112Z,17.82
2019-01-20T04:23:24.776Z,17.52
2019-01-20T04:25:54.398Z,18.67
2019-01-20T04:28:24.057Z,16.67
2019-01-20T04:30:53.413Z,18.10
2019-01-20T04:33:23.060Z,18.35
2019-01-20T04:35:52.415Z,16.07
2019-01-20T04:38:21.839Z,17.98
2019-01-20T04:40:51.372Z,18.48
2019-01-20T04:43:21.022Z,17.87
2019-01-20T04:45:50.618Z,18.90
2019-01-20T04:48:20.287Z,18.00
2019-01-20T04:50:49.900Z,17.25
2019-01-20T04:53:19.527Z,19.48
2019-01-20T04:55:49.117Z,19.40
2019-01-20T04:58:18.987Z,21.02
2019-01-20T05:00:48.660Z,23.00
2019-01-20T05:03:18.267Z,19.05
2019-01-20T05:05:47.579Z,20.08
2019-01-20T05:08:17.027Z,19.37
2019-01-20T05:10:46.695Z,21.73
2019-01-20T05:13:16.334Z,20.00
2019-01-20T05:15:45.968Z,20.20
2019-01-20T05:18:15.598Z,22.17
2019-01-20T05:20:45.255Z,21.73
2019-01-20T05:23:14.859Z,20.82
2019-01-20T05:25:44.486Z,22.35
2019-01-20T05:28:14.130Z,21.60
2019-01-20T05:30:43.734Z,19.67
2019-01-20T05:33:13.393Z,18.92
2019-01-20T05:35:43.024Z,17.87
2019-01-20T05:38:12.671Z,19.60
2019-01-20T05:40:42.093Z,19.70
2019-01-20T05:43:11.434Z,19.52
2019-01-20T05:45:41.118Z,18.85
2019-01-20T05:48:10.769Z,21.12
2019-01-20T05:50:40.369Z,19.65
2019-01-20T05:53:09.847Z,18.77
2019-01-20T05:55:39.471Z,19.60
2019-01-20T05:58:09.137Z,18.10
2019-01-20T06:00:38.743Z,19.17
2019-01-20T06:03:08.398Z,19.77
2019-01-20T06:05:38.001Z,17.70
2019-01-20T06:08:07.665Z,18.48
2019-01-20T06:10:37.322Z,17.35
2019-01-20T06:13:06.926Z,18.40
2019-01-20T06:15:36.444Z,18.62
2019-01-20T06:18:06.290Z,18.57
2019-01-20T06:20:35.944Z,18.27
2019-01-20T06:23:05.558Z,20.70
2019-01-20T06:25:34.943Z,22.02
2019-01-20T06:28:04.247Z,21.12
2019-01-20T06:30:33.599Z,19.90
2019-01-20T06:33:02.887Z,21.20
2019-01-20T06:35:32.226Z,19.15
2019-01-20T06:38:02.603Z,18.50
2019-01-20T06:40:32.040Z,17.30
2019-01-20T06:43:02.434Z,18.12
2019-01-20T06:45:31.962Z,18.02
2019-01-20T06:48:01.305Z,17.60
2019-01-20T06:50:30.979Z,18.62
2019-01-20T06:53:00.490Z,18.57
2019-01-20T06:55:31.134Z,18.37
2019-01-20T06:58:00.793Z,18.67
2019-01-20T07:00:30.419Z,16.50
2019-01-20T07:02:59.734Z,17.90
2019-01-20T07:05:29.093Z,16.87
2019-01-20T07:07:58.486Z,19.40
2019-01-20T07:10:27.815Z,17.80
2019-01-20T07:12:57.157Z,18.57
2019-01-20T07:15:26.550Z,16.32
2019-01-20T07:17:56.221Z,19.00
2019-01-20T07:20:25.639Z,17.05
2019-01-20T07:22:55.126Z,18.35
2019-01-20T07:25:24.712Z,17.40
2019-01-20T07:27:54.270Z,17.98
2019-01-20T07:30:23.676Z,16.75
2019-01-20T07:32:53.160Z,16.23
2019-01-20T07:35:22.734Z,16.42
2019-01-20T07:37:52.394Z,18.15
2019-01-20T07:40:22.833Z,17.65
2019-01-20T07:42:52.266Z,21.85
2019-01-20T07:45:21.878Z,21.40
2019-01-20T07:47:51.479Z,94.37
2019-01-20T07:50:22.646Z,80.92
2019-01-20T07:52:51.982Z,63.70
2019-01-20T07:55:21.369Z,58.55
2019-01-20T07:57:50.770Z,34.10
2019-01-20T08:00:22.230Z,25.25
2019-01-20T08:02:51.873Z,25.20
2019-01-20T08:05:21.280Z,21.87
2019-01-20T08:07:50.669Z,23.65
2019-01-20T08:10:23.301Z,21.45
2019-01-20T08:12:52.912Z,26.35
2019-01-20T08:15:22.445Z,27.40
2019-01-20T08:17:52.092Z,30.40
2019-01-20T08:20:23.323Z,26.62
2019-01-20T08:22:52.648Z,26.33
2019-01-20T08:25:22.221Z,25.23
2019-01-20T08:27:51.543Z,25.55
2019-01-20T08:30:23.131Z,28.23
2019-01-20T08:32:52.689Z,21.35
2019-01-20T08:35:23.211Z,18.30
2019-01-20T08:37:52.558Z,16.48
2019-01-20T08:40:24.661Z,17.40
2019-01-20T08:42:53.995Z,15.23
2019-01-20T08:45:26.623Z,14.55
2019-01-20T08:47:58.926Z,15.90
2019-01-20T08:50:28.238Z,15.13
2019-01-20T08:52:57.570Z,13.88
2019-01-20T08:55:26.864Z,14.20
2019-01-20T08:57:57.991Z,14.05
2019-01-20T09:00:27.326Z,18.80
2019-01-20T09:02:56.651Z,21.20
2019-01-20T09:05:25.951Z,13.40
2019-01-20T09:07:55.255Z,16.80
2019-01-20T09:10:25.743Z,14.07
2019-01-20T09:12:55.794Z,14.65
2019-01-20T09:15:37.455Z,12.03
2019-01-20T09:18:06.932Z,10.85
2019-01-20T09:20:36.269Z,10.95
2019-01-20T09:23:05.581Z,10.98
2019-01-20T09:25:34.905Z,12.55
2019-01-20T09:28:04.306Z,12.10
2019-01-20T09:30:33.606Z,12.18
2019-01-20T09:33:02.940Z,12.05
2019-01-20T09:35:32.238Z,13.30
2019-01-20T09:38:01.569Z,12.85
2019-01-20T09:40:30.935Z,12.50
2019-01-20T09:43:00.270Z,15.28
2019-01-20T09:45:33.336Z,15.45
2019-01-20T09:48:02.699Z,14.03
2019-01-20T09:50:32.008Z,13.10
2019-01-20T09:53:01.383Z,15.32
2019-01-20T09:55:30.731Z,14.35
2019-01-20T09:58:00.023Z,13.48
2019-01-20T10:00:32.087Z,12.90
2019-01-20T10:03:01.421Z,13.75
2019-01-20T10:05:31.815Z,14.53
2019-01-20T10:08:01.110Z,13.18
2019-01-20T10:10:30.432Z,11.93
2019-01-20T10:12:59.714Z,12.60
2019-01-20T10:15:29.054Z,12.30
2019-01-20T10:17:58.362Z,12.98
2019-01-20T10:20:29.806Z,12.90
2019-01-20T10:22:59.122Z,12.15
2019-01-20T10:25:28.438Z,11.80
2019-01-20T10:27:57.777Z,12.70
2019-01-20T10:30:29.786Z,12.82
2019-01-20T10:32:59.121Z,13.30
2019-01-20T10:35:38.988Z,14.05
2019-01-20T10:38:09.506Z,13.68
2019-01-20T10:40:38.831Z,13.40
2019-01-20T10:43:08.187Z,12.30
2019-01-20T10:45:37.508Z,14.15
2019-01-20T10:48:07.260Z,13.83
2019-01-20T10:50:36.581Z,12.43
2019-01-20T10:53:05.906Z,13.90
2019-01-20T10:55:35.260Z,14.07
2019-01-20T10:58:04.732Z,15.35
2019-01-20T11:00:39.507Z,13.38
2019-01-20T11:03:08.837Z,13.60
2019-01-20T11:05:38.215Z,14.90
2019-01-20T11:08:07.502Z,14.20
2019-01-20T11:10:36.822Z,13.53
2019-01-20T11:13:06.141Z,14.30
2019-01-20T11:15:35.539Z,13.95
2019-01-20T11:18:04.842Z,15.28
2019-01-20T11:20:34.123Z,14.85
2019-01-20T11:23:03.464Z,15.38
2019-01-20T11:25:35.737Z,15.10
2019-01-20T11:28:06.017Z,14.93
2019-01-20T11:30:36.374Z,14.80
2019-01-20T11:33:05.760Z,13.95
2019-01-20T11:35:35.094Z,12.90
2019-01-20T11:38:04.606Z,14.63
2019-01-20T11:40:33.934Z,13.45
2019-01-20T11:43:03.222Z,14.85
2019-01-20T11:45:32.638Z,13.95
2019-01-20T11:48:02.044Z,13.35
2019-01-20T11:50:31.366Z,13.83
2019-01-20T11:53:00.672Z,13.13
2019-01-20T11:55:29.960Z,11.55
2019-01-20T11:57:59.305Z,12.53
2019-01-20T12:00:33.256Z,10.48
2019-01-20T12:03:02.630Z,10.95
2019-01-20T12:05:33.063Z,10.68
2019-01-20T12:08:02.403Z,10.32
2019-01-20T12:10:31.797Z,11.60
2019-01-20T12:13:05.688Z,12.80
2019-01-20T12:15:35.104Z,12.03
2019-01-20T12:18:04.648Z,13.88
2019-01-20T12:20:34.108Z,12.85
2019-01-20T12:23:03.608Z,13.25
2019-01-20T12:25:32.978Z,12.78
2019-01-20T12:28:02.298Z,13.50
2019-01-20T12:30:37.512Z,15.08
2019-01-20T12:33:06.978Z,14.23
2019-01-20T12:35:36.280Z,14.05
2019-01-20T12:38:05.590Z,11.95
2019-01-20T12:40:37.869Z,14.80
2019-01-20T12:43:07.148Z,12.68
2019-01-20T12:45:36.464Z,12.28
2019-01-20T12:48:07.430Z,12.88
2019-01-20T12:50:37.153Z,13.53
2019-01-20T12:53:06.925Z,15.55
2019-01-20T12:55:36.240Z,14.73
2019-01-20T12:58:05.659Z,15.55
2019-01-20T13:00:34.928Z,15.23
2019-01-20T13:03:04.522Z,15.23
2019-01-20T13:05:33.940Z,14.75
2019-01-20T13:08:05.092Z,16.00
2019-01-20T13:10:34.768Z,16.73
2019-01-20T13:13:04.178Z,14.80
2019-01-20T13:15:33.888Z,18.17
2019-01-20T13:18:03.254Z,16.10
2019-01-20T13:20:32.980Z,16.62
2019-01-20T13:23:02.493Z,16.23
2019-01-20T13:25:31.904Z,14.80
2019-01-20T13:28:01.290Z,16.95
2019-01-20T13:30:30.613Z,15.72
2019-01-20T13:32:59.892Z,17.12
2019-01-20T13:35:29.232Z,18.10
2019-01-20T13:38:04.458Z,18.10
2019-01-20T13:40:43.230Z,16.80
2019-01-20T13:43:12.515Z,17.10
2019-01-20T13:45:41.873Z,18.37
2019-01-20T13:48:12.660Z,18.35
2019-01-20T13:50:43.149Z,18.65
2019-01-20T13:53:14.051Z,17.90
2019-01-20T13:55:43.395Z,17.67
2019-01-20T13:58:12.714Z,17.62
2019-01-20T14:00:44.046Z,17.60
2019-01-20T14:03:13.029Z,16.30
2019-01-20T14:05:42.494Z,16.77
2019-01-20T14:08:11.876Z,19.05
2019-01-20T14:10:41.215Z,17.05
2019-01-20T14:13:10.591Z,18.42
2019-01-20T14:15:39.899Z,19.40
2019-01-20T14:18:09.215Z,18.90
2019-01-20T14:20:40.228Z,18.10
2019-01-20T14:23:09.563Z,16.65
2019-01-20T14:25:38.883Z,15.85
2019-01-20T14:28:08.270Z,13.10
2019-01-20T14:30:37.580Z,16.60
2019-01-20T14:33:06.919Z,14.73
2019-01-20T14:35:36.253Z,16.02
2019-01-20T14:38:05.589Z,12.93
2019-01-20T14:40:34.910Z,13.62
2019-01-20T14:43:04.253Z,11.78
2019-01-20T14:45:33.583Z,13.70
2019-01-20T14:48:02.980Z,12.78
2019-01-20T14:50:32.861Z,13.15
2019-01-20T14:53:02.329Z,12.60
2019-01-20T14:55:31.716Z,12.78
2019-01-20T14:58:01.006Z,13.45
2019-01-20T15:00:38.089Z,12.25
2019-01-20T15:03:07.758Z,12.85
2019-01-20T15:05:37.110Z,13.58
2019-01-20T15:08:06.491Z,13.10
2019-01-20T15:10:36.074Z,12.90
2019-01-20T15:13:05.515Z,15.23
2019-01-20T15:15:37.186Z,16.12
2019-01-20T15:18:06.935Z,15.15
2019-01-20T15:20:36.375Z,14.50
2019-01-20T15:23:05.917Z,15.50
2019-01-20T15:25:35.397Z,16.27
2019-01-20T15:28:04.953Z,17.80
2019-01-20T15:30:34.566Z,17.05
2019-01-20T15:33:05.168Z,15.30
2019-01-20T15:35:35.506Z,13.53
2019-01-20T15:38:05.305Z,13.50
2019-01-20T15:40:34.594Z,13.08
2019-01-20T15:43:03.934Z,13.62
2019-01-20T15:45:33.289Z,13.83
2019-01-20T15:48:02.609Z,19.50
2019-01-20T15:50:33.022Z,13.13
2019-01-20T15:53:02.511Z,15.08
2019-01-20T15:55:32.204Z,12.75
2019-01-20T15:58:01.922Z,13.03
2019-01-20T16:00:32.324Z,16.00
2019-01-20T16:03:02.819Z,13.35
2019-01-20T16:05:32.117Z,14.03
2019-01-20T16:08:01.481Z,13.75
2019-01-20T16:10:30.763Z,12.55
2019-01-20T16:13:00.083Z,12.15
2019-01-20T16:15:32.084Z,12.70
2019-01-20T16:18:01.378Z,12.35
2019-01-20T16:20:30.895Z,15.20
2019-01-20T16:23:00.207Z,13.28
2019-01-20T16:25:34.135Z,13.40
2019-01-20T16:28:03.736Z,14.53
2019-01-20T16:30:35.190Z,15.23
2019-01-20T16:33:04.832Z,16.62
2019-01-20T16:35:34.129Z,15.85
2019-01-20T16:38:03.702Z,14.28
2019-01-20T16:40:33.010Z,13.25
2019-01-20T16:43:03.418Z,13.80
2019-01-20T16:45:41.980Z,14.28
2019-01-20T16:48:07.623Z,16.55
2019-01-20T16:50:36.936Z,17.30
2019-01-20T16:53:06.277Z,12.93
2019-01-20T16:55:35.628Z,14.28
2019-01-20T16:58:04.940Z,12.82
2019-01-20T17:00:37.097Z,15.43
2019-01-20T17:03:06.428Z,14.95
2019-01-20T17:05:35.748Z,12.95
2019-01-20T17:08:06.153Z,14.40
2019-01-20T17:10:37.730Z,14.58
2019-01-20T17:13:07.796Z,17.98
2019-01-20T17:15:40.052Z,18.92
2019-01-20T17:18:11.422Z,22.52
2019-01-20T17:20:40.765Z,20.23
2019-01-20T17:23:10.090Z,22.27
2019-01-20T17:25:39.411Z,21.80
2019-01-20T17:28:08.753Z,21.15
2019-01-20T17:30:38.640Z,19.17
2019-01-20T17:33:09.681Z,20.12
2019-01-20T17:35:39.040Z,20.95
2019-01-20T17:38:08.492Z,21.82
2019-01-20T17:43:17.770Z,24.45
2019-01-20T17:45:49.832Z,23.05
2019-01-20T17:48:18.096Z,22.00
2019-01-20T17:50:47.403Z,22.02
2019-01-20T17:53:16.742Z,23.50
2019-01-20T17:55:46.257Z,21.30
2019-01-20T17:58:15.719Z,21.65
2019-01-20T18:00:49.705Z,21.02
2019-01-20T18:03:19.042Z,17.52
2019-01-20T18:05:49.438Z,16.80
2019-01-20T18:08:20.619Z,17.00
2019-01-20T18:10:49.921Z,16.77
2019-01-20T18:13:19.239Z,15.28
2019-01-20T18:15:54.345Z,17.55
2019-01-20T18:18:21.722Z,17.05
2019-01-20T18:20:51.087Z,16.93
2019-01-20T18:23:20.402Z,16.02
2019-01-20T18:25:49.731Z,16.25
2019-01-20T18:28:19.071Z,18.82
2019-01-20T18:30:48.412Z,19.12
2019-01-20T18:33:17.728Z,19.70
2019-01-20T18:35:47.016Z,17.62
2019-01-20T18:38:16.412Z,16.55
2019-01-20T18:40:46.299Z,18.95
2019-01-20T18:43:15.723Z,21.57
2019-01-20T18:45:45.109Z,17.32
2019-01-20T18:48:14.418Z,17.70
2019-01-20T18:50:44.596Z,16.48
2019-01-20T18:53:14.011Z,18.92
2019-01-20T18:55:43.519Z,17.73
2019-01-20T18:58:12.810Z,15.65
2019-01-20T19:00:49.983Z,16.62
2019-01-20T19:03:23.126Z,16.40
2019-01-20T19:05:56.516Z,17.42
2019-01-20T19:08:26.122Z,17.20
2019-01-20T19:11:00.253Z,19.37
2019-01-20T19:13:31.089Z,24.10
2019-01-20T19:16:00.437Z,22.82
2019-01-20T19:18:29.737Z,24.72
2019-01-20T19:20:59.073Z,23.10
2019-01-20T19:23:28.400Z,25.88
2019-01-20T19:25:57.689Z,27.30
2019-01-20T19:28:27.035Z,27.93
2019-01-20T19:30:56.351Z,26.33
2019-01-20T19:33:25.669Z,23.87
2019-01-20T19:35:54.958Z,25.75
2019-01-20T19:38:24.314Z,24.10
2019-01-20T19:40:53.609Z,24.82
2019-01-20T19:43:22.940Z,25.32
2019-01-20T19:45:52.345Z,27.62
2019-01-20T19:48:21.661Z,27.55
2019-01-20T19:50:51.002Z,27.55
2019-01-20T19:53:20.292Z,27.42
2019-01-20T19:55:49.611Z,27.80
2019-01-20T19:58:18.939Z,28.38
2019-01-20T20:00:48.248Z,27.73
2019-01-20T20:03:17.567Z,30.35
2019-01-20T20:05:46.949Z,29.20
2019-01-20T20:08:16.261Z,29.15
2019-01-20T20:10:46.746Z,28.70
2019-01-20T20:13:16.149Z,29.45
2019-01-20T20:15:45.454Z,30.25
2019-01-20T20:18:14.790Z,28.80
2019-01-20T20:20:44.079Z,30.75
2019-01-20T20:23:13.423Z,31.25
2019-01-20T20:25:42.726Z,30.23
2019-01-20T20:28:12.047Z,29.70
2019-01-20T20:30:41.344Z,29.65
2019-01-20T20:33:10.676Z,29.82
2019-01-20T20:35:39.995Z,29.05
2019-01-20T20:38:09.402Z,32.65
2019-01-20T20:40:38.684Z,28.80
2019-01-20T20:43:08.025Z,30.08
2019-01-20T20:45:37.339Z,30.92
2019-01-20T20:48:06.678Z,28.90
2019-01-20T20:50:36.039Z,29.67
2019-01-20T20:53:05.430Z,29.20
2019-01-20T20:55:34.747Z,31.60
2019-01-20T20:58:04.562Z,29.50
2019-01-20T21:00:36.835Z,29.82
2019-01-20T21:03:09.463Z,28.77
2019-01-20T21:05:39.759Z,29.00
2019-01-20T21:08:09.070Z,28.35
2019-01-20T21:10:38.403Z,27.40
2019-01-20T21:13:08.792Z,29.52
2019-01-20T21:15:38.121Z,28.42
2019-01-20T21:18:07.465Z,28.30
2019-01-20T21:20:36.762Z,29.10
2019-01-20T21:23:12.021Z,27.73
2019-01-20T21:25:37.024Z,25.95
2019-01-20T21:28:06.382Z,27.05
2019-01-20T21:30:35.670Z,25.35
2019-01-20T21:33:04.990Z,27.70
2019-01-20T21:35:34.306Z,26.00
2019-01-20T21:38:06.852Z,25.80
2019-01-20T21:40:35.686Z,27.73
2019-01-20T21:43:04.979Z,26.52
2019-01-20T21:45:34.300Z,28.62
2019-01-20T21:48:04.679Z,27.93
2019-01-20T21:50:34.035Z,27.60
2019-01-20T21:53:03.398Z,28.40
2019-01-20T21:55:32.710Z,28.80
2019-01-20T21:58:02.043Z,27.30
2019-01-20T22:00:31.348Z,25.92
2019-01-20T22:03:00.667Z,27.67
2019-01-20T22:05:29.984Z,24.90
2019-01-20T22:07:59.291Z,25.60
2019-01-20T22:10:28.629Z,23.10
2019-01-20T22:12:57.938Z,25.85
2019-01-20T22:15:27.272Z,26.05
2019-01-20T22:17:56.560Z,24.82
2019-01-20T22:20:25.896Z,26.02
2019-01-20T22:22:55.206Z,25.80
2019-01-20T22:25:24.536Z,24.27
2019-01-20T22:27:53.830Z,23.98
2019-01-20T22:30:24.900Z,22.27
2019-01-20T22:32:54.205Z,22.87
2019-01-20T22:35:23.537Z,22.00
2019-01-20T22:37:52.864Z,21.97
2019-01-20T22:40:22.154Z,28.77
2019-01-20T22:42:51.562Z,28.17
2019-01-20T22:45:25.294Z,32.67
2019-01-20T22:47:54.643Z,27.22
2019-01-20T22:50:23.964Z,28.45
2019-01-20T22:52:53.351Z,25.60
2019-01-20T22:55:22.634Z,31.00
2019-01-20T22:57:51.975Z,27.48
2019-01-20T23:00:29.290Z,30.48
2019-01-20T23:02:58.675Z,30.15
2019-01-20T23:05:27.963Z,32.63
2019-01-20T23:07:57.305Z,30.57
2019-01-20T23:10:26.614Z,28.20
2019-01-20T23:12:55.927Z,29.27
2019-01-20T23:15:25.247Z,34.45
2019-01-20T23:17:54.761Z,31.73
2019-01-20T23:20:24.054Z,30.48
2019-01-20T23:22:53.338Z,28.40
2019-01-20T23:25:22.693Z,28.83
2019-01-20T23:27:51.986Z,32.58
2019-01-20T23:30:21.323Z,31.00
2019-01-20T23:32:51.509Z,35.13
2019-01-20T23:35:20.849Z,32.50
2019-01-20T23:37:50.163Z,30.57
2019-01-20T23:40:19.456Z,32.08
2019-01-20T23:42:48.783Z,33.80
2019-01-20T23:45:18.094Z,32.45
2019-01-20T23:47:47.445Z,32.98
2019-01-20T23:50:18.356Z,29.90
2019-01-20T23:52:47.722Z,27.70
2019-01-20T23:55:17.010Z,29.25
2019-01-20T23:57:46.345Z,28.20
